Metar z połowy godziny Komunikat METAR ze strony awiacja.imgw.pl Metar G00 EPSC METAR EPSC 070030Z 26007KT 9999 BKN004 BKN014 02/01 Q1010 =